createdAt,value
2019-03-22T00:00:53.096Z,37.90
2019-03-22T00:03:22.807Z,37.37
2019-03-22T00:05:52.416Z,36.50
2019-03-22T00:08:21.938Z,37.00
2019-03-22T00:10:51.494Z,37.23
2019-03-22T00:13:21.028Z,37.20
2019-03-22T00:15:50.708Z,37.70
2019-03-22T00:18:20.273Z,38.10
2019-03-22T00:20:49.954Z,37.83
2019-03-22T00:23:19.488Z,35.90
2019-03-22T00:25:49.514Z,36.37
2019-03-22T00:28:19.120Z,37.30
2019-03-22T00:30:48.858Z,36.50
2019-03-22T00:33:18.710Z,35.63
2019-03-22T00:35:48.342Z,36.80
2019-03-22T00:38:20.831Z,35.97
2019-03-22T00:40:50.482Z,35.60
2019-03-22T00:43:20.082Z,35.87
2019-03-22T00:45:49.802Z,37.40
2019-03-22T00:48:19.420Z,35.33
2019-03-22T00:50:48.948Z,35.10
2019-03-22T00:53:18.618Z,34.73
2019-03-22T00:55:48.200Z,34.63
2019-03-22T00:58:17.733Z,34.10
2019-03-22T01:00:47.353Z,35.73
2019-03-22T01:03:17.315Z,35.37
2019-03-22T01:05:48.637Z,35.40
2019-03-22T01:08:18.276Z,35.70
2019-03-22T01:10:49.617Z,34.60
2019-03-22T01:13:19.222Z,35.90
2019-03-22T01:15:48.743Z,35.97
2019-03-22T01:18:18.334Z,34.97
2019-03-22T01:20:48.321Z,34.77
2019-03-22T01:23:17.843Z,35.87
2019-03-22T01:25:47.409Z,36.50
2019-03-22T01:28:16.935Z,38.40
2019-03-22T01:30:46.444Z,35.43
2019-03-22T01:33:16.076Z,38.80
2019-03-22T01:35:45.644Z,36.53
2019-03-22T01:38:15.169Z,37.20
2019-03-22T01:40:45.290Z,38.30
2019-03-22T01:43:14.958Z,37.63
2019-03-22T01:45:44.577Z,37.30
2019-03-22T01:48:14.216Z,39.07
2019-03-22T01:50:43.750Z,38.37
2019-03-22T01:53:13.346Z,37.90
2019-03-22T01:55:42.979Z,38.20
2019-03-22T01:58:12.661Z,37.47
2019-03-22T02:00:42.326Z,36.53
2019-03-22T02:03:12.161Z,38.53
2019-03-22T02:05:43.599Z,38.97
2019-03-22T02:08:13.655Z,39.30
2019-03-22T02:10:43.278Z,40.77
2019-03-22T02:13:12.827Z,38.60
2019-03-22T02:15:42.414Z,39.23
2019-03-22T02:18:12.056Z,39.53
2019-03-22T02:20:41.622Z,38.90
2019-03-22T02:23:11.345Z,39.13
2019-03-22T02:25:41.385Z,39.63
2019-03-22T02:28:11.052Z,39.60
2019-03-22T02:30:40.575Z,39.00
2019-03-22T02:33:10.154Z,40.37
2019-03-22T02:35:40.109Z,40.70
2019-03-22T02:38:09.660Z,41.33
2019-03-22T02:40:39.312Z,38.33
2019-03-22T02:43:08.957Z,38.73
2019-03-22T02:45:38.675Z,40.57
2019-03-22T02:48:08.508Z,37.33
2019-03-22T02:50:38.050Z,39.03
2019-03-22T02:53:07.661Z,38.77
2019-03-22T02:55:37.629Z,39.93
2019-03-22T02:58:19.715Z,38.83
2019-03-22T03:00:38.626Z,38.87
2019-03-22T03:03:08.328Z,39.27
2019-03-22T03:05:37.862Z,39.53
2019-03-22T03:08:07.547Z,37.97
2019-03-22T03:10:37.352Z,35.77
2019-03-22T03:13:06.945Z,37.17
2019-03-22T03:15:36.469Z,37.73
2019-03-22T03:18:06.096Z,36.80
2019-03-22T03:20:35.723Z,38.33
2019-03-22T03:23:05.415Z,35.47
2019-03-22T03:25:35.048Z,38.50
2019-03-22T03:28:04.728Z,36.20
2019-03-22T03:30:34.344Z,36.80
2019-03-22T03:33:04.628Z,35.20
2019-03-22T03:35:35.744Z,36.07
2019-03-22T03:38:05.398Z,34.77
2019-03-22T03:40:35.132Z,37.90
2019-03-22T03:43:04.890Z,35.83
2019-03-22T03:45:38.235Z,36.07
2019-03-22T03:48:15.946Z,36.33
2019-03-22T03:50:46.127Z,36.70
2019-03-22T03:53:15.755Z,38.00
2019-03-22T03:55:45.441Z,37.40
2019-03-22T03:58:16.004Z,37.10
2019-03-22T04:00:45.613Z,36.17
2019-03-22T04:03:15.247Z,34.50
2019-03-22T04:05:44.786Z,36.07
2019-03-22T04:08:14.341Z,37.50
2019-03-22T04:10:44.045Z,38.17
2019-03-22T04:13:13.588Z,38.87
2019-03-22T04:15:43.290Z,35.57
2019-03-22T04:18:13.370Z,37.90
2019-03-22T04:20:42.888Z,35.30
2019-03-22T04:23:12.425Z,38.00
2019-03-22T04:25:41.977Z,36.33
2019-03-22T04:28:11.593Z,38.53
2019-03-22T04:30:41.122Z,36.43
2019-03-22T04:33:11.169Z,38.10
2019-03-22T04:35:40.685Z,39.00
2019-03-22T04:38:10.438Z,38.00
2019-03-22T04:40:39.985Z,35.80
2019-03-22T04:43:09.514Z,37.00
2019-03-22T04:45:41.345Z,40.03
2019-03-22T04:48:21.818Z,39.50
2019-03-22T04:50:54.098Z,39.30
2019-03-22T04:53:25.888Z,36.97
2019-03-22T04:56:01.778Z,38.97
2019-03-22T04:58:32.611Z,37.20
2019-03-22T05:01:03.469Z,37.67
2019-03-22T05:03:35.757Z,38.23
2019-03-22T05:06:07.534Z,36.80
2019-03-22T05:08:39.670Z,36.30
2019-03-22T05:11:12.363Z,39.00
2019-03-22T05:13:46.079Z,36.47
2019-03-22T05:16:18.608Z,36.77
2019-03-22T05:18:50.191Z,35.73
2019-03-22T05:21:23.902Z,37.40
2019-03-22T05:23:58.646Z,37.13
2019-03-22T05:26:30.543Z,37.73
2019-03-22T05:29:01.506Z,36.50
2019-03-22T05:31:44.606Z,38.50
2019-03-22T05:34:16.940Z,38.60
2019-03-22T05:36:46.547Z,38.53
2019-03-22T05:39:16.364Z,38.60
2019-03-22T05:41:45.971Z,38.47
2019-03-22T05:44:15.552Z,38.30
2019-03-22T05:46:45.180Z,36.20
2019-03-22T05:49:14.714Z,38.83
2019-03-22T05:51:44.332Z,35.80
2019-03-22T05:54:13.845Z,40.50
2019-03-22T05:56:43.389Z,37.03
2019-03-22T05:59:12.958Z,38.97
2019-03-22T06:01:45.381Z,35.83
2019-03-22T06:04:15.184Z,38.27
2019-03-22T06:06:44.814Z,37.90
2019-03-22T06:09:14.440Z,36.67
2019-03-22T06:11:44.111Z,36.17
2019-03-22T06:14:13.799Z,35.50
2019-03-22T06:16:43.586Z,35.33
2019-03-22T06:19:13.237Z,37.73
2019-03-22T06:21:43.003Z,35.97
2019-03-22T06:24:12.722Z,35.27
2019-03-22T06:26:42.547Z,36.27
2019-03-22T06:29:12.349Z,36.23
2019-03-22T06:31:42.007Z,36.47
2019-03-22T06:34:11.850Z,35.50
2019-03-22T06:36:41.588Z,36.80
2019-03-22T06:39:11.366Z,36.33
2019-03-22T06:41:41.117Z,35.33
2019-03-22T06:44:10.707Z,34.27
2019-03-22T06:46:41.116Z,35.00
2019-03-22T06:49:10.833Z,35.83
2019-03-22T06:51:40.572Z,36.80
2019-03-22T06:54:11.871Z,34.33
2019-03-22T06:56:41.487Z,36.27
2019-03-22T06:59:11.160Z,34.73
2019-03-22T07:01:40.878Z,35.93
2019-03-22T07:04:12.361Z,35.60
2019-03-22T07:06:42.018Z,36.77
2019-03-22T07:09:11.857Z,34.03
2019-03-22T07:11:42.018Z,38.77
2019-03-22T07:14:11.659Z,37.80
2019-03-22T07:16:41.452Z,37.50
2019-03-22T07:19:11.136Z,36.80
2019-03-22T07:21:40.828Z,38.87
2019-03-22T07:24:10.741Z,37.80
2019-03-22T07:26:40.430Z,35.87
2019-03-22T07:29:10.207Z,36.40
2019-03-22T07:31:40.813Z,37.57
2019-03-22T07:34:10.441Z,36.50
2019-03-22T07:36:40.230Z,36.80
2019-03-22T07:39:10.649Z,37.47
2019-03-22T07:41:40.354Z,35.87
2019-03-22T07:44:09.893Z,34.77
2019-03-22T07:46:39.703Z,35.80
2019-03-22T07:49:09.405Z,37.00
2019-03-22T07:51:38.969Z,37.63
2019-03-22T07:54:10.637Z,37.13
2019-03-22T07:56:40.422Z,38.50
2019-03-22T07:59:10.142Z,37.27
2019-03-22T08:01:41.209Z,36.27
2019-03-22T08:04:10.855Z,37.20
2019-03-22T08:06:40.605Z,35.53
2019-03-22T08:09:10.489Z,35.47
2019-03-22T08:11:40.769Z,37.93
2019-03-22T08:14:10.317Z,35.73
2019-03-22T08:16:42.988Z,38.10
2019-03-22T08:19:12.855Z,37.97
2019-03-22T08:21:42.602Z,36.50
2019-03-22T08:24:18.149Z,36.33
2019-03-22T08:26:47.826Z,36.00
2019-03-22T08:29:17.553Z,35.73
2019-03-22T08:31:47.906Z,33.50
2019-03-22T08:34:17.632Z,33.60
2019-03-22T08:36:47.277Z,35.80
2019-03-22T08:39:16.982Z,35.33
2019-03-22T08:41:46.727Z,34.40
2019-03-22T08:44:16.523Z,34.40
2019-03-22T08:46:46.338Z,37.80
2019-03-22T08:49:16.313Z,35.37
2019-03-22T08:51:46.064Z,36.73
2019-03-22T08:54:18.663Z,38.10
2019-03-22T08:56:48.364Z,35.00
2019-03-22T08:59:18.093Z,36.73
2019-03-22T09:01:48.286Z,35.13
2019-03-22T09:04:18.025Z,38.20
2019-03-22T09:06:47.745Z,36.90
2019-03-22T09:09:17.574Z,36.60
2019-03-22T09:11:47.296Z,39.40
2019-03-22T09:14:17.127Z,37.67
2019-03-22T09:16:47.220Z,38.07
2019-03-22T09:19:17.012Z,36.30
2019-03-22T09:21:46.705Z,35.80
2019-03-22T09:24:18.949Z,38.57
2019-03-22T09:26:48.178Z,39.53
2019-03-22T09:29:18.258Z,36.87
2019-03-22T09:31:48.307Z,37.90
2019-03-22T09:34:18.132Z,38.13
2019-03-22T09:36:47.801Z,40.47
2019-03-22T09:39:17.471Z,39.53
2019-03-22T09:41:47.167Z,41.07
2019-03-22T09:44:16.920Z,39.97
2019-03-22T09:46:46.717Z,47.70
2019-03-22T09:49:16.509Z,43.33
2019-03-22T09:51:46.231Z,40.23
2019-03-22T09:54:17.244Z,44.77
2019-03-22T09:56:47.633Z,43.40
2019-03-22T09:59:17.625Z,44.70
2019-03-22T10:01:47.403Z,45.87
2019-03-22T10:04:17.090Z,45.57
2019-03-22T10:06:47.530Z,47.70
2019-03-22T10:09:17.481Z,44.83
2019-03-22T10:11:47.272Z,46.87
2019-03-22T10:14:17.136Z,45.60
2019-03-22T10:16:47.944Z,45.90
2019-03-22T10:19:17.633Z,46.10
2019-03-22T10:21:47.550Z,49.93
2019-03-22T10:24:17.344Z,50.77
2019-03-22T10:26:46.996Z,50.20
2019-03-22T10:29:16.787Z,50.67
2019-03-22T10:31:46.499Z,50.60
2019-03-22T10:34:16.295Z,52.50
2019-03-22T10:36:46.263Z,50.40
2019-03-22T10:39:16.538Z,48.60
2019-03-22T10:41:46.186Z,49.37
2019-03-22T10:44:15.847Z,50.00
2019-03-22T10:46:45.584Z,51.07
2019-03-22T10:49:15.404Z,50.60
2019-03-22T10:51:55.993Z,49.87
2019-03-22T10:54:16.604Z,55.00
2019-03-22T10:56:46.480Z,50.87
2019-03-22T10:59:16.306Z,53.97
2019-03-22T11:01:57.431Z,53.20
2019-03-22T11:04:17.643Z,51.03
2019-03-22T11:06:47.353Z,52.80
2019-03-22T11:09:17.623Z,52.73
2019-03-22T11:11:47.417Z,55.13
2019-03-22T11:14:17.107Z,52.70
2019-03-22T11:16:47.005Z,53.97
2019-03-22T11:19:17.114Z,54.90
2019-03-22T11:21:46.839Z,53.00
2019-03-22T11:24:16.541Z,55.57
2019-03-22T11:26:46.294Z,54.93
2019-03-22T11:29:16.011Z,55.37
2019-03-22T11:31:45.930Z,56.17
2019-03-22T11:34:15.561Z,58.17
2019-03-22T11:36:45.326Z,60.47
2019-03-22T11:39:16.115Z,61.30
2019-03-22T11:41:46.001Z,61.87
2019-03-22T11:44:15.640Z,61.63
2019-03-22T11:46:45.600Z,65.50
2019-03-22T11:49:15.288Z,62.27
2019-03-22T11:51:45.452Z,62.07
2019-03-22T11:54:15.147Z,59.60
2019-03-22T11:56:44.953Z,62.13
2019-03-22T11:59:14.590Z,59.97
2019-03-22T12:01:44.425Z,63.53
2019-03-22T12:04:14.116Z,61.67
2019-03-22T12:06:43.716Z,61.90
2019-03-22T12:09:13.610Z,61.60
2019-03-22T12:11:43.515Z,61.33
2019-03-22T12:14:13.801Z,59.90
2019-03-22T12:16:43.575Z,62.30
2019-03-22T12:19:13.259Z,58.90
2019-03-22T12:21:43.072Z,61.57
2019-03-22T12:24:13.029Z,59.97
2019-03-22T12:26:42.663Z,57.70
2019-03-22T12:29:12.314Z,58.33
2019-03-22T12:31:46.939Z,55.93
2019-03-22T12:34:16.539Z,58.60
2019-03-22T12:36:47.654Z,58.93
2019-03-22T12:39:17.351Z,56.93
2019-03-22T12:41:47.038Z,54.03
2019-03-22T12:44:19.461Z,56.47
2019-03-22T12:46:49.590Z,57.37
2019-03-22T12:49:19.150Z,58.63
2019-03-22T12:51:48.963Z,57.17
2019-03-22T12:54:20.264Z,56.53
2019-03-22T12:56:49.788Z,54.80
2019-03-22T12:59:19.419Z,57.03
2019-03-22T13:01:49.163Z,55.23
2019-03-22T13:04:19.046Z,54.23
2019-03-22T13:06:48.673Z,53.90
2019-03-22T13:09:20.277Z,54.00
2019-03-22T13:11:50.461Z,52.60
2019-03-22T13:14:20.196Z,54.87
2019-03-22T13:16:50.098Z,55.90
2019-03-22T13:19:20.139Z,56.20
2019-03-22T13:21:49.897Z,55.60
2019-03-22T13:24:20.143Z,57.63
2019-03-22T13:26:49.924Z,57.40
2019-03-22T13:29:21.063Z,58.17
2019-03-22T13:31:53.549Z,58.90
2019-03-22T13:34:23.307Z,57.60
2019-03-22T13:36:53.156Z,55.67
2019-03-22T13:39:22.883Z,58.63
2019-03-22T13:41:52.581Z,60.57
2019-03-22T13:44:22.264Z,60.37
2019-03-22T13:46:52.124Z,59.43
2019-03-22T13:49:21.901Z,57.70
2019-03-22T13:51:51.743Z,62.27
2019-03-22T13:54:22.066Z,56.80
2019-03-22T13:56:51.931Z,56.80
2019-03-22T13:59:23.631Z,57.23
2019-03-22T14:01:54.037Z,57.13
2019-03-22T14:04:23.722Z,58.30
2019-03-22T14:06:53.658Z,52.70
2019-03-22T14:09:23.947Z,56.07
2019-03-22T14:11:53.758Z,53.67
2019-03-22T14:14:24.298Z,55.90
2019-03-22T14:16:54.190Z,54.20
2019-03-22T14:19:24.014Z,54.37
2019-03-22T14:21:53.920Z,53.30
2019-03-22T14:24:23.877Z,54.03
2019-03-22T14:26:53.760Z,54.87
2019-03-22T14:29:23.529Z,54.43
2019-03-22T14:31:53.506Z,54.50
2019-03-22T14:34:23.234Z,56.17
2019-03-22T14:36:56.215Z,55.27
2019-03-22T14:39:26.276Z,51.17
2019-03-22T14:41:56.138Z,54.57
2019-03-22T14:44:28.206Z,55.03
2019-03-22T14:46:59.666Z,52.50
2019-03-22T14:49:29.474Z,53.27
2019-03-22T14:51:59.159Z,52.50
2019-03-22T14:54:29.055Z,52.93
2019-03-22T14:56:59.220Z,49.80
2019-03-22T14:59:32.150Z,53.00
2019-03-22T15:02:02.045Z,54.67
2019-03-22T15:04:31.864Z,51.60
2019-03-22T15:07:01.633Z,53.30
2019-03-22T15:09:31.686Z,53.47
2019-03-22T15:12:01.542Z,51.80
2019-03-22T15:14:48.655Z,51.63
2019-03-22T15:17:36.202Z,53.63
2019-03-22T15:20:25.668Z,51.13
2019-03-22T15:23:13.543Z,52.33
2019-03-22T15:25:45.187Z,51.13
2019-03-22T15:28:22.451Z,52.90
2019-03-22T15:30:52.006Z,52.60
2019-03-22T15:33:39.387Z,53.20
2019-03-22T15:36:14.728Z,52.20
2019-03-22T15:39:01.229Z,51.70
2019-03-22T15:41:31.146Z,51.17
2019-03-22T15:44:01.211Z,55.03
2019-03-22T15:46:31.026Z,53.80
2019-03-22T15:49:00.704Z,52.50
2019-03-22T15:51:30.468Z,54.70
2019-03-22T15:54:00.173Z,56.77
2019-03-22T15:56:30.083Z,58.00
2019-03-22T15:58:59.966Z,56.83
2019-03-22T16:01:29.716Z,54.87
2019-03-22T16:03:59.537Z,54.90
2019-03-22T16:06:29.509Z,57.80
2019-03-22T16:08:59.287Z,56.47
2019-03-22T16:11:29.207Z,55.43
2019-03-22T16:14:01.102Z,58.20
2019-03-22T16:16:30.826Z,57.00
2019-03-22T16:19:00.850Z,57.10
2019-03-22T16:21:31.568Z,56.83
2019-03-22T16:24:02.396Z,56.50
2019-03-22T16:26:32.726Z,55.23
2019-03-22T16:29:03.248Z,58.60
2019-03-22T16:31:34.741Z,56.63
2019-03-22T16:34:05.965Z,53.80
2019-03-22T16:36:35.753Z,54.30
2019-03-22T16:39:08.678Z,56.90
2019-03-22T16:41:38.427Z,55.57
2019-03-22T16:44:08.563Z,56.77
2019-03-22T16:46:38.514Z,54.83
2019-03-22T16:49:27.627Z,56.77
2019-03-22T16:51:57.411Z,56.20
2019-03-22T16:54:27.122Z,52.83
2019-03-22T16:56:56.812Z,55.87
2019-03-22T16:59:26.591Z,55.90
2019-03-22T17:01:56.252Z,55.33
2019-03-22T17:04:26.130Z,56.07
2019-03-22T17:06:55.912Z,56.50
2019-03-22T17:09:25.893Z,55.80
2019-03-22T17:11:55.995Z,56.93
2019-03-22T17:14:25.984Z,56.13
2019-03-22T17:16:56.326Z,54.10
2019-03-22T17:19:26.116Z,56.63
2019-03-22T17:21:55.980Z,57.57
2019-03-22T17:24:26.029Z,57.00
2019-03-22T17:26:55.955Z,56.13
2019-03-22T17:29:27.198Z,54.80
2019-03-22T17:31:56.934Z,55.47
2019-03-22T17:34:27.075Z,57.10
2019-03-22T17:36:56.849Z,58.27
2019-03-22T17:39:26.603Z,55.20
2019-03-22T17:41:57.150Z,55.00
2019-03-22T17:44:27.034Z,55.13
2019-03-22T17:46:56.858Z,54.10
2019-03-22T17:49:26.657Z,56.20
2019-03-22T17:51:56.352Z,57.53
2019-03-22T17:54:26.138Z,58.07
2019-03-22T17:56:56.086Z,57.37
2019-03-22T17:59:26.079Z,56.87
2019-03-22T18:01:57.114Z,58.10
2019-03-22T18:04:26.956Z,57.53
2019-03-22T18:06:56.697Z,57.30
2019-03-22T18:09:26.372Z,59.10
2019-03-22T18:11:56.023Z,57.70
2019-03-22T18:14:26.998Z,58.90
2019-03-22T18:16:57.477Z,60.87
2019-03-22T18:19:27.292Z,59.30
2019-03-22T18:21:56.981Z,64.37
2019-03-22T18:24:26.669Z,59.03
2019-03-22T18:26:56.358Z,62.00
2019-03-22T18:29:26.981Z,59.70
2019-03-22T18:31:57.014Z,62.00
2019-03-22T18:34:33.939Z,62.43
2019-03-22T18:36:58.317Z,64.10
2019-03-22T18:39:27.974Z,62.60
2019-03-22T18:41:57.832Z,64.50
2019-03-22T18:44:27.467Z,63.97
2019-03-22T18:46:57.158Z,63.70
2019-03-22T18:49:32.894Z,63.60
2019-03-22T18:52:02.944Z,64.87
2019-03-22T18:54:32.526Z,66.07
2019-03-22T18:57:02.447Z,66.87
2019-03-22T18:59:32.276Z,65.87
2019-03-22T19:02:02.051Z,63.77
2019-03-22T19:04:31.977Z,65.77
2019-03-22T19:07:01.845Z,68.47
2019-03-22T19:09:32.613Z,64.43
2019-03-22T19:12:02.993Z,64.17
2019-03-22T19:14:33.668Z,65.83
2019-03-22T19:17:03.488Z,65.20
2019-03-22T19:19:33.493Z,67.93
2019-03-22T19:22:03.397Z,68.07
2019-03-22T19:24:33.315Z,66.40
2019-03-22T19:27:22.460Z,68.47
2019-03-22T19:29:53.782Z,67.50
2019-03-22T19:32:23.611Z,69.73
2019-03-22T19:34:54.539Z,67.27
2019-03-22T19:37:24.634Z,67.80
2019-03-22T19:39:54.251Z,65.20
2019-03-22T19:42:24.003Z,67.87
2019-03-22T19:44:53.720Z,66.90
2019-03-22T19:47:23.602Z,71.97
2019-03-22T19:49:53.253Z,67.40
2019-03-22T19:52:22.928Z,70.30
2019-03-22T19:54:52.650Z,72.27
2019-03-22T19:57:22.422Z,68.40
2019-03-22T19:59:52.250Z,69.63
2019-03-22T20:02:21.930Z,70.20
2019-03-22T20:04:53.079Z,69.27
2019-03-22T20:07:26.847Z,68.80
2019-03-22T20:09:54.294Z,70.10
2019-03-22T20:12:24.670Z,72.73
2019-03-22T20:15:01.640Z,70.13
2019-03-22T20:17:31.349Z,71.90
2019-03-22T20:20:01.263Z,72.07
2019-03-22T20:22:33.809Z,71.00
2019-03-22T20:25:04.915Z,71.27
2019-03-22T20:27:34.446Z,70.97
2019-03-22T20:30:08.676Z,70.17
2019-03-22T20:32:38.700Z,70.97
2019-03-22T20:35:16.191Z,68.77
2019-03-22T20:37:42.215Z,73.43
2019-03-22T20:40:16.121Z,68.57
2019-03-22T20:42:45.859Z,71.77
2019-03-22T20:45:23.683Z,69.77
2019-03-22T20:47:48.744Z,70.90
2019-03-22T20:50:18.798Z,70.80
2019-03-22T20:52:48.412Z,71.90
2019-03-22T20:55:18.208Z,71.10
2019-03-22T20:57:48.234Z,74.90
2019-03-22T21:00:19.078Z,69.00
2019-03-22T21:02:48.929Z,73.97
2019-03-22T21:05:26.490Z,72.20
2019-03-22T21:07:50.047Z,72.00
2019-03-22T21:10:20.404Z,70.10
2019-03-22T21:12:50.020Z,72.37
2019-03-22T21:15:24.224Z,68.77
2019-03-22T21:17:51.189Z,73.00
2019-03-22T21:20:20.751Z,70.27
2019-03-22T21:22:50.408Z,69.20
2019-03-22T21:25:20.143Z,73.77
2019-03-22T21:27:49.762Z,68.90
2019-03-22T21:30:19.523Z,71.77
2019-03-22T21:32:49.853Z,71.87
2019-03-22T21:35:22.812Z,72.60
2019-03-22T21:37:50.900Z,68.77
2019-03-22T21:40:20.561Z,71.83
2019-03-22T21:42:50.248Z,70.10
2019-03-22T21:45:19.942Z,69.30
2019-03-22T21:47:49.591Z,72.27
2019-03-22T21:50:19.198Z,73.83
2019-03-22T21:52:48.879Z,70.00
2019-03-22T21:55:18.555Z,76.87
2019-03-22T21:57:48.227Z,72.53
2019-03-22T22:00:18.118Z,74.83
2019-03-22T22:02:47.924Z,73.33
2019-03-22T22:05:17.739Z,68.23
2019-03-22T22:07:47.248Z,71.37
2019-03-22T22:10:19.046Z,71.30
2019-03-22T22:12:48.919Z,70.27
2019-03-22T22:15:18.822Z,75.83
2019-03-22T22:17:48.944Z,71.93
2019-03-22T22:20:28.550Z,67.50
2019-03-22T22:22:49.966Z,71.30
2019-03-22T22:25:19.621Z,72.10
2019-03-22T22:27:49.539Z,73.97
2019-03-22T22:30:19.449Z,72.67
2019-03-22T22:32:49.005Z,72.13
2019-03-22T22:35:18.601Z,76.17
2019-03-22T22:37:48.257Z,70.90
2019-03-22T22:40:18.032Z,69.27
2019-03-22T22:42:49.050Z,72.03
2019-03-22T22:45:18.644Z,74.57
2019-03-22T22:47:48.425Z,72.50
2019-03-22T22:50:18.202Z,70.73
2019-03-22T22:52:47.881Z,71.90
2019-03-22T22:55:17.529Z,73.77
2019-03-22T22:57:47.118Z,76.80
2019-03-22T23:00:18.371Z,71.57
2019-03-22T23:02:48.486Z,75.47
2019-03-22T23:05:18.256Z,73.23
2019-03-22T23:07:47.804Z,72.10
2019-03-22T23:10:17.506Z,76.00
2019-03-22T23:12:47.148Z,73.40
2019-03-22T23:15:16.769Z,70.27
2019-03-22T23:17:47.297Z,73.63
2019-03-22T23:20:16.908Z,74.17
2019-03-22T23:22:46.435Z,74.03
2019-03-22T23:25:17.813Z,75.07
2019-03-22T23:27:47.354Z,73.90
2019-03-22T23:30:17.209Z,74.77
2019-03-22T23:32:46.952Z,77.07
2019-03-22T23:35:18.196Z,77.17
2019-03-22T23:37:47.774Z,73.87
2019-03-22T23:40:17.342Z,77.87
2019-03-22T23:42:46.906Z,77.10
2019-03-22T23:45:16.605Z,75.77
2019-03-22T23:47:46.516Z,75.03
2019-03-22T23:50:16.143Z,77.13
2019-03-22T23:52:45.827Z,76.80
2019-03-22T23:55:15.560Z,73.60
2019-03-22T23:57:45.171Z,77.53
